Time;durP1;ratioP1;P1;durP2;ratioP2;P2;SDS_P1;SDS_P2;PMS_P1;PMS_P2;Temp;Humidity;BMP_temperature;BMP_pressure;BME280_temperature;BME280_humidity;BME280_pressure;Samples;Min_cycle;Max_cycle;Signal;HPM_P1;HPM_P2
2022/07/23 00:03:43;;;;;;;6.30;4.60;;;;;;;15.54;100.00;96710.16;10452094;28;20211;-57
2022/07/23 00:08:43;;;;;;;5.47;4.78;;;;;;;15.26;100.00;96701.13;10452427;28;20243;-59
2022/07/23 00:13:44;;;;;;;5.25;4.43;;;;;;;15.39;100.00;96712.84;10452049;28;20211;-58
2022/07/23 00:18:44;;;;;;;4.85;4.28;;;;;;;15.37;100.00;96691.09;10452160;28;20646;-59
2022/07/23 00:23:45;;;;;;;5.10;4.60;;;;;;;15.31;100.00;96688.22;10451877;28;20247;-59
2022/07/23 00:28:45;;;;;;;5.78;4.70;;;;;;;15.27;100.00;96694.06;10452805;28;20198;-60
2022/07/23 00:33:46;;;;;;;5.63;4.30;;;;;;;15.18;100.00;96689.91;10451633;28;20314;-59
2022/07/23 00:38:46;;;;;;;5.57;5.05;;;;;;;15.21;100.00;96687.69;10451617;28;20193;-59
2022/07/23 00:43:46;;;;;;;5.35;4.85;;;;;;;15.02;100.00;96681.16;10433243;28;20249;-58
2022/07/23 00:48:48;;;;;;;5.32;4.82;;;;;;;15.07;100.00;96688.53;10452805;28;20219;-58
2022/07/23 00:53:48;;;;;;;8.38;4.35;;;;;;;14.96;100.00;96689.81;10459651;28;20767;-59
2022/07/23 00:58:49;;;;;;;5.20;4.70;;;;;;;15.00;100.00;96687.66;10459455;28;20238;-59
2022/07/23 01:03:49;;;;;;;6.50;4.70;;;;;;;14.97;100.00;96681.72;10441926;28;20219;-57
2022/07/23 01:08:49;;;;;;;5.82;4.88;;;;;;;15.09;100.00;96683.91;10459837;28;20658;-58
2022/07/23 01:13:50;;;;;;;7.35;4.97;;;;;;;15.09;100.00;96676.00;10441741;28;20694;-59
2022/07/23 01:18:51;;;;;;;7.50;4.60;;;;;;;15.02;100.00;96656.63;10440927;28;20265;-60
2022/07/23 01:23:51;;;;;;;4.95;4.45;;;;;;;15.11;100.00;96652.88;10440677;28;20585;-60
2022/07/23 01:28:52;;;;;;;8.10;4.38;;;;;;;15.06;100.00;96656.06;10458482;28;20242;-61
2022/07/23 01:33:53;;;;;;;6.13;4.75;;;;;;;14.92;100.00;96646.38;10440260;28;20310;-60
2022/07/23 01:38:54;;;;;;;5.60;4.40;;;;;;;14.78;100.00;96638.31;10440412;28;20184;-60
2022/07/23 01:43:55;;;;;;;5.03;4.43;;;;;;;14.79;100.00;96625.91;10443564;23;20248;-71
2022/07/23 01:48:57;;;;;;;8.18;4.95;;;;;;;14.70;100.00;96627.88;10449422;28;20282;-71
2022/07/23 01:54:11;;;;;;;5.28;4.78;;;;;;;14.71;100.00;96626.03;10454056;28;20220;-71
2022/07/23 01:59:12;;;;;;;5.45;4.55;;;;;;;14.68;100.00;96618.50;10452753;28;20206;-70
2022/07/23 02:04:12;;;;;;;7.10;5.50;;;;;;;14.62;100.00;96618.25;10468249;28;20180;-71
2022/07/23 02:09:13;;;;;;;4.78;4.30;;;;;;;14.52;100.00;96612.41;10452596;28;20195;-71
2022/07/23 02:14:13;;;;;;;4.95;4.53;;;;;;;14.60;100.00;96617.59;10452615;28;20222;-71
2022/07/23 02:19:14;;;;;;;4.80;4.40;;;;;;;14.71;100.00;96618.13;10435703;28;20188;-71
2022/07/23 02:24:15;;;;;;;9.25;4.32;;;;;;;14.71;100.00;96604.94;10453743;28;20184;-71
2022/07/23 02:29:16;;;;;;;4.70;4.30;;;;;;;14.76;100.00;96594.66;10453398;28;20685;-71
2022/07/23 02:34:16;;;;;;;5.63;4.80;;;;;;;14.80;100.00;96595.91;10468382;28;20230;-71
2022/07/23 02:39:17;;;;;;;5.13;4.45;;;;;;;14.80;100.00;96582.72;10451318;28;20196;-71
2022/07/23 02:44:17;;;;;;;5.57;4.80;;;;;;;14.83;100.00;96582.38;10434929;28;20255;-71
2022/07/23 02:49:22;;;;;;;5.95;4.65;;;;;;;14.94;100.00;96568.66;10476645;28;20236;-71
2022/07/23 02:54:24;;;;;;;6.75;4.80;;;;;;;15.01;100.00;96573.19;10475796;28;20211;-71
2022/07/23 02:59:26;;;;;;;6.55;4.70;;;;;;;14.96;100.00;96573.75;10475777;28;20202;-71
2022/07/23 03:04:26;;;;;;;5.63;4.50;;;;;;;15.02;100.00;96569.56;10471212;28;20675;-70
2022/07/23 03:09:26;;;;;;;5.78;5.28;;;;;;;15.01;100.00;96563.47;10486318;28;20732;-70
2022/07/23 03:14:27;;;;;;;6.20;4.55;;;;;;;15.20;100.00;96564.66;10468163;28;20269;-70
2022/07/23 03:19:28;;;;;;;4.93;4.43;;;;;;;15.25;100.00;96561.44;10467399;28;20191;-70
2022/07/23 03:24:53;;;;;;;4.35;3.95;;;;;;;15.33;100.00;96551.59;10485777;28;20191;-70
2022/07/23 03:29:50;;;;;;;5.15;4.68;;;;;;;15.32;100.00;96549.13;10452882;28;20198;-70
2022/07/23 03:34:51;;;;;;;5.63;4.68;;;;;;;15.26;100.00;96549.91;10466977;28;20302;-70
2022/07/23 03:39:51;;;;;;;7.07;4.88;;;;;;;15.28;100.00;96551.34;10484503;28;20198;-70
2022/07/23 03:44:52;;;;;;;4.95;4.43;;;;;;;15.28;100.00;96555.78;10450011;28;20614;-70
2022/07/23 03:49:52;;;;;;;7.47;4.90;;;;;;;15.29;100.00;96539.75;10483321;28;20183;-71
2022/07/23 03:54:52;;;;;;;7.75;4.60;;;;;;;15.19;100.00;96534.03;10482998;28;20256;-71
2022/07/23 03:59:53;;;;;;;11.50;5.30;;;;;;;15.28;100.00;96524.13;10499909;28;20197;-72
2022/07/23 04:04:53;;;;;;;6.30;4.70;;;;;;;15.56;100.00;96541.78;10490213;28;20183;-71
2022/07/23 04:09:54;;;;;;;4.90;4.50;;;;;;;15.79;100.00;96517.78;10473188;28;20187;-71
2022/07/23 04:14:54;;;;;;;4.60;4.20;;;;;;;15.73;100.00;96513.25;10473222;28;20567;-71
2022/07/23 04:19:55;;;;;;;5.43;4.47;;;;;;;15.89;100.00;96517.47;10472784;28;20190;-71
2022/07/23 04:24:58;;;;;;;10.55;4.82;;;;;;;16.03;100.00;96508.59;10472730;28;20237;-71
2022/07/23 04:29:59;;;;;;;4.70;4.18;;;;;;;16.55;100.00;96519.56;10490472;28;20303;-71
2022/07/23 04:34:59;;;;;;;5.97;3.95;;;;;;;16.69;100.00;96518.59;10472697;28;20595;-70
2022/07/23 04:39:59;;;;;;;4.25;3.85;;;;;;;17.11;100.00;96521.94;10471858;28;20188;-71
2022/07/23 04:45:00;;;;;;;4.30;3.90;;;;;;;17.25;100.00;96521.97;10472679;28;20219;-71
2022/07/23 04:50:01;;;;;;;4.68;4.22;;;;;;;17.27;100.00;96541.94;10471997;28;20187;-71
2022/07/23 04:55:03;;;;;;;5.82;4.53;;;;;;;17.33;100.00;96550.06;10454336;28;20207;-71
2022/07/23 05:00:04;;;;;;;5.80;5.00;;;;;;;17.40;100.00;96557.00;10469290;28;20187;-71
2022/07/23 05:05:05;;;;;;;6.18;5.57;;;;;;;17.51;100.00;96546.81;10471112;28;20187;-71
2022/07/23 05:10:06;;;;;;;9.65;6.50;;;;;;;17.86;100.00;96549.22;10472300;28;20190;-72
2022/07/23 05:15:07;;;;;;;11.93;6.72;;;;;;;17.86;100.00;96538.63;10472257;28;20297;-71
2022/07/23 05:20:08;;;;;;;6.63;6.03;;;;;;;18.12;100.00;96543.88;10489614;28;20188;-71
2022/07/23 05:25:09;;;;;;;6.47;5.88;;;;;;;18.50;100.00;96548.44;10468313;28;20191;-71
2022/07/23 05:30:10;;;;;;;10.38;6.50;;;;;;;18.60;100.00;96557.78;10447050;28;20184;-71
2022/07/23 05:35:13;;;;;;;10.23;5.78;;;;;;;18.76;100.00;96575.88;10435108;28;20218;-71
2022/07/23 05:40:18;;;;;;;6.82;5.80;;;;;;;18.19;100.00;96586.28;10438583;28;20197;-71
2022/07/23 05:45:18;;;;;;;6.35;5.75;;;;;;;18.38;100.00;96583.78;10456986;28;20219;-71
2022/07/23 05:50:20;;;;;;;10.63;6.00;;;;;;;18.18;100.00;96635.03;10454153;28;20278;-70
2022/07/23 05:55:28;;;;;;;6.63;5.75;;;;;;;18.11;100.00;96647.50;10435237;28;20208;-71
2022/07/23 06:00:29;;;;;;;5.78;5.22;;;;;;;18.02;100.00;96664.63;10434813;28;20275;-70
2022/07/23 06:05:30;;;;;;;8.75;6.07;;;;;;;17.73;100.00;96683.34;10436404;28;20184;-71
2022/07/23 06:10:31;;;;;;;7.40;6.07;;;;;;;17.63;100.00;96690.88;10430138;28;20192;-70
2022/07/23 06:15:32;;;;;;;13.30;6.90;;;;;;;17.56;100.00;96700.63;10477845;28;20682;-71
2022/07/23 06:20:32;;;;;;;8.40;7.65;;;;;;;17.45;100.00;96689.59;10477150;28;20191;-70
2022/07/23 06:25:33;;;;;;;8.48;7.60;;;;;;;17.66;100.00;96679.88;10477648;28;20184;-71
2022/07/23 06:30:33;;;;;;;9.60;8.57;;;;;;;17.46;100.00;96683.31;10476983;28;20642;-71
2022/07/23 06:35:34;;;;;;;14.30;9.00;;;;;;;17.21;100.00;96671.63;10476830;28;20230;-71
2022/07/23 06:40:34;;;;;;;8.88;7.97;;;;;;;17.43;100.00;96677.59;10485147;28;20183;-71
2022/07/23 06:45:36;;;;;;;8.95;8.05;;;;;;;17.49;100.00;96682.09;10476117;28;20429;-72
2022/07/23 06:50:36;;;;;;;10.65;7.10;;;;;;;17.74;100.00;96686.81;10458500;28;20532;-72
2022/07/23 06:55:38;;;;;;;11.43;9.95;;;;;;;17.63;100.00;96702.28;10436955;28;20212;-72
2022/07/23 07:00:39;;;;;;;11.55;9.13;;;;;;;17.24;100.00;96692.41;10445611;28;20198;-71
2022/07/23 07:05:40;;;;;;;12.18;10.27;;;;;;;17.43;100.00;96683.72;10473252;28;20562;-71
2022/07/23 07:10:40;;;;;;;12.23;9.63;;;;;;;17.57;100.00;96683.75;10469952;28;20196;-71
2022/07/23 07:15:41;;;;;;;13.80;10.75;;;;;;;17.69;100.00;96682.13;10491518;28;20561;-71
2022/07/23 07:20:41;;;;;;;14.20;9.95;;;;;;;17.77;100.00;96675.81;10480148;28;20286;-71
2022/07/23 07:25:42;;;;;;;13.73;10.18;;;;;;;17.89;100.00;96681.34;10490066;28;20324;-70
2022/07/23 07:30:42;;;;;;;11.85;9.45;;;;;;;18.30;100.00;96683.78;10488462;28;20218;-70
2022/07/23 07:35:42;;;;;;;10.88;9.23;;;;;;;18.21;100.00;96671.75;10487720;28;20698;-70
2022/07/23 07:40:43;;;;;;;14.43;10.65;;;;;;;18.42;100.00;96678.63;10488536;28;20253;-71
2022/07/23 07:45:43;;;;;;;10.38;8.77;;;;;;;18.72;100.00;96678.97;10488502;28;20227;-70
2022/07/23 07:50:44;;;;;;;15.82;10.23;;;;;;;18.36;100.00;96687.41;10489969;28;20187;-70
2022/07/23 07:55:44;;;;;;;11.52;9.27;;;;;;;19.06;100.00;96679.69;10490824;28;20229;-70
2022/07/23 08:01:27;;;;;;;10.32;7.78;;;;;;;19.97;96.31;96660.97;10479140;28;20190;-68
2022/07/23 08:06:27;;;;;;;11.95;9.55;;;;;;;19.52;93.87;96648.59;10481053;28;20593;-70
2022/07/23 08:11:27;;;;;;;14.13;11.00;;;;;;;18.05;100.00;96658.91;10489875;28;20199;-70
2022/07/23 08:16:28;;;;;;;11.15;9.32;;;;;;;19.38;100.00;96663.81;10489961;28;20285;-70
2022/07/23 08:21:28;;;;;;;9.25;8.30;;;;;;;20.73;90.38;96619.09;10469876;28;20345;-70
2022/07/23 08:26:28;;;;;;;11.57;7.55;;;;;;;21.72;83.55;96586.75;10488173;28;20194;-70
2022/07/23 08:31:29;;;;;;;13.02;7.35;;;;;;;24.04;70.52;96497.56;10489030;28;20199;-73
2022/07/23 08:36:32;;;;;;;14.18;6.75;;;;;;;24.95;66.98;96487.31;10488288;28;20222;-72
2022/07/23 08:41:32;;;;;;;15.88;7.78;;;;;;;24.84;66.32;96511.38;10483027;28;20199;-72
2022/07/23 08:46:33;;;;;;;7.05;6.35;;;;;;;26.08;62.63;96474.75;10470641;28;20709;-72
2022/07/23 08:51:33;;;;;;;11.48;6.25;;;;;;;25.69;63.41;96500.00;10487235;28;20226;-72
2022/07/23 08:56:35;;;;;;;9.80;6.60;;;;;;;25.89;62.33;96504.69;10470735;28;20304;-72
2022/07/23 09:01:37;;;;;;;7.28;5.90;;;;;;;25.61;62.59;96501.31;10488742;28;20218;-72
2022/07/23 09:06:38;;;;;;;5.97;5.38;;;;;;;26.90;57.74;96440.06;10488557;28;20191;-72
2022/07/23 09:11:39;;;;;;;8.75;6.88;;;;;;;27.38;56.42;96429.03;10435195;28;20226;-71
2022/07/23 09:16:39;;;;;;;6.05;5.45;;;;;;;26.02;60.31;96502.63;10477556;28;20225;-72
2022/07/23 09:21:39;;;;;;;9.30;6.03;;;;;;;26.25;59.52;96493.34;10454299;28;20269;-71
2022/07/23 09:26:40;;;;;;;6.57;5.43;;;;;;;25.25;60.25;96473.38;10454857;28;20200;-72
2022/07/23 09:31:50;;;;;;;6.35;5.25;;;;;;;25.08;60.75;96506.50;10455081;28;20450;-71
2022/07/23 09:36:53;;;;;;;7.63;5.20;;;;;;;26.41;58.44;96488.84;10435809;28;20219;-71
2022/07/23 09:41:54;;;;;;;12.68;5.30;;;;;;;26.62;57.68;96495.09;10456819;28;20185;-71
2022/07/23 09:46:58;;;;;;;6.45;5.00;;;;;;;26.04;59.23;96535.41;10417404;28;20236;-71
2022/07/23 09:52:01;;;;;;;9.18;5.75;;;;;;;25.44;61.46;96573.88;10433142;28;20658;-70
2022/07/23 09:57:14;;;;;;;7.38;5.68;;;;;;;25.35;61.46;96572.72;10425280;28;20629;-71
2022/07/23 10:02:15;;;;;;;9.88;5.68;;;;;;;23.69;66.66;96630.53;10412796;28;20291;-72
2022/07/23 10:07:48;;;;;;;10.00;5.45;;;;;;;25.28;62.25;96567.53;10379306;28;20192;-71
2022/07/23 10:18:16;;;;;;;7.72;4.93;;;;;;;27.25;57.29;96531.78;10411722;28;20554;-72
2022/07/23 10:23:25;;;;;;;8.82;5.45;;;;;;;27.56;54.94;96474.22;10394452;28;20185;-71
2022/07/23 10:28:43;;;;;;;8.60;4.43;;;;;;;27.38;55.92;96515.13;10395463;28;20197;-71
2022/07/23 10:34:05;;;;;;;5.63;4.88;;;;;;;25.67;60.70;96581.81;10397157;28;20314;-71
2022/07/23 10:39:14;;;;;;;7.55;5.00;;;;;;;25.39;61.43;96599.81;10436062;28;20196;-71
2022/07/23 10:44:22;;;;;;;6.78;4.70;;;;;;;26.70;58.34;96567.97;10450831;28;20219;-71
2022/07/23 10:49:28;;;;;;;9.65;4.82;;;;;;;27.43;56.39;96555.50;10494630;28;20553;-71
2022/07/23 10:54:28;;;;;;;7.03;4.18;;;;;;;29.04;51.83;96481.19;10476524;28;20305;-72
2022/07/23 10:59:28;;;;;;;8.23;4.73;;;;;;;30.02;50.32;96478.44;10494601;28;20631;-72
2022/07/23 11:04:48;;;;;;;6.47;4.33;;;;;;;28.86;51.47;96471.88;10494213;28;20464;-72
2022/07/23 11:09:49;;;;;;;5.78;4.53;;;;;;;29.32;49.87;96458.84;10493801;28;20437;-72
2022/07/23 11:15:11;;;;;;;5.43;4.82;;;;;;;27.60;52.81;96485.25;10473584;28;20215;-72
2022/07/23 11:20:16;;;;;;;6.22;4.70;;;;;;;28.20;53.34;96504.25;10468188;28;20202;-71
2022/07/23 11:25:27;;;;;;;7.10;4.50;;;;;;;27.92;53.40;96516.44;10455020;28;20192;-71
2022/07/23 11:30:28;;;;;;;9.15;4.47;;;;;;;27.82;53.69;96508.38;10473278;28;20199;-72
2022/07/23 11:35:28;;;;;;;7.63;4.65;;;;;;;27.60;54.12;96520.25;10470717;28;20690;-72
2022/07/23 11:40:29;;;;;;;8.70;4.28;;;;;;;26.68;56.57;96545.94;10471401;28;20192;-72
2022/07/23 11:45:35;;;;;;;5.40;4.75;;;;;;;27.96;52.60;96482.50;10481509;28;20235;-72
2022/07/23 11:50:36;;;;;;;7.13;4.88;;;;;;;26.67;55.52;96517.44;10492942;28;20278;-71
2022/07/23 11:55:36;;;;;;;12.38;4.90;;;;;;;26.70;56.61;96549.16;10493235;28;20276;-72
2022/07/23 12:00:40;;;;;;;6.10;4.50;;;;;;;25.97;58.69;96574.00;10462888;28;20188;-71
2022/07/23 12:05:41;;;;;;;11.25;4.63;;;;;;;26.24;57.02;96543.56;10451370;28;20648;-71
2022/07/23 12:10:43;;;;;;;6.65;4.70;;;;;;;26.28;57.58;96558.09;10450588;28;20188;-71
2022/07/23 12:22:18;;;;;;;8.25;5.20;;;;;;;24.61;61.67;96608.91;10430370;28;20195;-71
2022/07/23 12:27:21;;;;;;;19.83;5.03;;;;;;;23.51;65.62;96674.34;10480919;28;20187;-71
2022/07/23 12:32:24;;;;;;;9.88;4.45;;;;;;;23.84;66.53;96696.03;10467762;28;20222;-71
2022/07/23 12:37:30;;;;;;;7.93;5.68;;;;;;;24.01;65.70;96690.72;10458866;28;20227;-71
2022/07/23 12:42:41;;;;;;;10.20;4.68;;;;;;;23.39;69.25;96721.72;10442906;28;20672;-72
2022/07/23 12:48:04;;;;;;;6.10;5.22;;;;;;;23.51;68.90;96724.34;10463245;28;20188;-71
2022/07/23 12:53:12;;;;;;;7.63;4.75;;;;;;;24.26;66.47;96679.63;10474188;28;20255;-71
2022/07/23 12:58:18;;;;;;;8.48;5.28;;;;;;;23.38;69.62;96735.31;10444449;28;20184;-71
2022/07/23 13:03:23;;;;;;;10.45;5.47;;;;;;;22.91;71.58;96755.75;10444972;28;20195;-72
2022/07/23 13:08:24;;;;;;;9.57;5.90;;;;;;;23.22;72.44;96761.75;10459910;28;20203;-71
2022/07/23 13:13:28;;;;;;;7.85;5.15;;;;;;;23.62;71.64;96747.56;10446280;28;20933;-71
2022/07/23 13:18:28;;;;;;;8.35;5.15;;;;;;;24.35;69.31;96720.16;10452294;28;20246;-71
2022/07/23 13:23:29;;;;;;;9.25;4.80;;;;;;;25.04;66.89;96697.59;10459204;28;20184;-71
2022/07/23 13:28:29;;;;;;;8.45;5.75;;;;;;;23.91;68.44;96706.63;10466158;28;20187;-71
2022/07/23 13:33:30;;;;;;;9.77;6.13;;;;;;;24.02;69.13;96725.28;10462785;28;20571;-72
2022/07/23 13:38:30;;;;;;;7.75;5.95;;;;;;;23.85;69.57;96735.97;10455638;28;20192;-72
2022/07/23 13:43:31;;;;;;;13.32;6.53;;;;;;;23.22;71.64;96750.25;10482030;28;20247;-72
2022/07/23 13:48:32;;;;;;;10.93;6.32;;;;;;;23.31;71.26;96736.28;10458648;28;20195;-72
2022/07/23 13:53:32;;;;;;;8.48;6.03;;;;;;;22.61;74.75;96756.66;10442763;28;20219;-72
2022/07/23 13:58:32;;;;;;;11.32;6.65;;;;;;;23.05;73.19;96744.81;10447822;28;20283;-71
2022/07/23 14:03:33;;;;;;;7.57;6.57;;;;;;;23.40;71.94;96730.53;10452157;28;20194;-72
2022/07/23 14:08:33;;;;;;;7.90;6.60;;;;;;;23.28;71.14;96728.72;10449796;28;20307;-72
2022/07/23 14:13:33;;;;;;;7.70;6.50;;;;;;;22.92;73.79;96753.88;10452035;28;20215;-72
2022/07/23 14:18:34;;;;;;;11.30;7.18;;;;;;;23.54;70.89;96723.03;10451132;28;20670;-72
2022/07/23 14:23:34;;;;;;;10.35;7.43;;;;;;;23.07;72.37;96740.03;10450800;28;20937;-71
2022/07/23 14:28:34;;;;;;;9.00;7.03;;;;;;;22.55;76.13;96776.28;10450848;28;20706;-71
2022/07/23 14:33:35;;;;;;;11.13;7.57;;;;;;;22.69;73.97;96736.00;10449897;28;20310;-72
2022/07/23 14:38:35;;;;;;;12.45;7.57;;;;;;;22.60;75.65;96743.56;10454660;28;20207;-72
2022/07/23 14:43:36;;;;;;;8.57;6.70;;;;;;;23.43;72.84;96728.22;10491248;28;20238;-70
2022/07/23 14:48:37;;;;;;;7.72;6.78;;;;;;;23.60;69.93;96703.38;10462256;28;20196;-71
2022/07/23 14:53:37;;;;;;;8.73;6.68;;;;;;;23.69;69.92;96708.09;10459291;28;20223;-71
2022/07/23 14:58:37;;;;;;;12.65;7.35;;;;;;;24.14;67.77;96676.22;10477214;28;20200;-70
2022/07/23 15:03:38;;;;;;;11.40;7.32;;;;;;;23.89;67.65;96693.50;10449461;28;20188;-70
2022/07/23 15:09:37;;;;;;;11.35;7.35;;;;;;;25.14;63.36;96644.06;10465927;28;20191;-71
2022/07/23 15:14:37;;;;;;;11.48;6.63;;;;;;;24.73;64.94;96675.72;10491019;28;20219;-71
2022/07/23 15:19:38;;;;;;;9.50;6.40;;;;;;;26.10;62.38;96647.13;10490422;28;20282;-71
2022/07/23 15:24:38;;;;;;;9.00;7.07;;;;;;;26.57;58.86;96603.38;10490031;28;20199;-71
2022/07/23 15:29:38;;;;;;;8.03;6.53;;;;;;;24.88;63.01;96651.81;10490157;28;20456;-71
2022/07/23 15:34:39;;;;;;;11.23;7.03;;;;;;;24.84;64.68;96676.66;10486450;28;20481;-71
2022/07/23 15:39:39;;;;;;;8.45;6.60;;;;;;;24.75;64.64;96676.31;10471093;28;20187;-71
2022/07/23 15:44:40;;;;;;;8.95;7.32;;;;;;;23.67;67.19;96714.75;10460607;28;20231;-71
2022/07/23 15:49:44;;;;;;;7.43;6.72;;;;;;;23.54;68.52;96728.41;10452794;28;20551;-71
2022/07/23 15:54:44;;;;;;;14.98;9.80;;;;;;;23.09;71.16;96754.81;10452583;28;20215;-71
2022/07/23 15:59:45;;;;;;;9.82;8.35;;;;;;;24.78;65.86;96693.75;10451578;28;20203;-71
2022/07/23 16:04:45;;;;;;;10.02;8.82;;;;;;;26.04;59.46;96605.22;10461353;28;20187;-70
2022/07/23 16:09:45;;;;;;;9.48;8.30;;;;;;;25.21;62.02;96654.63;10468209;28;20222;-71
2022/07/23 16:14:46;;;;;;;10.02;9.02;;;;;;;24.48;64.64;96700.28;10470834;28;20212;-71
2022/07/23 16:19:46;;;;;;;12.85;9.88;;;;;;;24.93;62.04;96665.28;10462099;28;20199;-71
2022/07/23 16:24:46;;;;;;;15.07;10.32;;;;;;;24.09;65.28;96697.53;10451288;28;20186;-71
2022/07/23 16:29:47;;;;;;;77.88;51.83;;;;;;;23.36;67.13;96724.88;10453186;28;20192;-71
2022/07/23 16:34:48;;;;;;;26.15;21.33;;;;;;;23.00;69.28;96747.34;10492624;28;20242;-71
2022/07/23 16:39:48;;;;;;;13.73;12.32;;;;;;;22.96;70.05;96757.72;10493060;28;20198;-71
2022/07/23 16:44:48;;;;;;;14.57;10.98;;;;;;;23.09;68.86;96736.13;10458106;28;20227;-71
2022/07/23 16:49:49;;;;;;;12.57;11.27;;;;;;;23.74;67.56;96715.41;10451024;28;20278;-71
2022/07/23 16:54:50;;;;;;;15.35;10.45;;;;;;;23.65;68.88;96747.06;10450900;28;20231;-71
2022/07/23 16:59:50;;;;;;;12.10;10.07;;;;;;;23.74;67.50;96728.78;10449256;28;20204;-71
2022/07/23 17:04:51;;;;;;;14.82;11.18;;;;;;;23.72;66.27;96704.16;10450178;28;20211;-71
2022/07/23 17:09:51;;;;;;;12.40;10.75;;;;;;;23.62;66.10;96703.97;10453942;28;20187;-71
2022/07/23 17:14:51;;;;;;;14.02;11.63;;;;;;;23.10;67.58;96720.88;10463003;28;20717;-71
2022/07/23 17:19:53;;;;;;;13.75;12.35;;;;;;;22.83;68.85;96745.41;10462639;28;20269;-70
2022/07/23 17:24:53;;;;;;;15.23;13.20;;;;;;;22.44;70.47;96771.75;10467568;28;20764;-71
2022/07/23 17:29:53;;;;;;;16.27;13.07;;;;;;;22.23;71.47;96779.22;10478687;28;20674;-71
2022/07/23 17:34:54;;;;;;;977.55;584.97;;;;;;;21.85;73.24;96807.09;10476972;28;20720;-71
2022/07/23 17:39:54;;;;;;;35.53;26.13;;;;;;;21.60;74.96;96814.41;10474562;28;20210;-71
2022/07/23 17:44:55;;;;;;;35.95;28.95;;;;;;;21.60;74.90;96812.53;10474159;28;20226;-71
2022/07/23 17:49:55;;;;;;;24.08;20.38;;;;;;;21.76;74.71;96802.28;10490894;28;20222;-71
2022/07/23 17:54:55;;;;;;;20.42;16.65;;;;;;;21.70;75.40;96822.66;10497984;28;21043;-71
2022/07/23 17:59:56;;;;;;;19.33;15.75;;;;;;;21.66;75.93;96827.63;10483177;28;20723;-71
2022/07/23 18:04:56;;;;;;;24.30;19.52;;;;;;;21.53;76.70;96830.47;10495195;28;20654;-71
2022/07/23 18:09:56;;;;;;;21.35;16.33;;;;;;;21.55;75.95;96812.41;10497330;28;20655;-71
2022/07/23 18:14:57;;;;;;;19.23;16.60;;;;;;;21.47;75.47;96810.00;10490527;28;20640;-71
2022/07/23 18:19:57;;;;;;;20.90;16.40;;;;;;;21.32;75.94;96821.06;10477290;28;20188;-70
2022/07/23 18:24:58;;;;;;;55.22;49.22;;;;;;;21.00;76.45;96823.84;10476995;28;20211;-70
2022/07/23 18:29:58;;;;;;;51.05;45.22;;;;;;;20.52;79.63;96843.91;10476892;28;20202;-70
2022/07/23 18:34:59;;;;;;;20.17;15.77;;;;;;;20.49;78.43;96841.66;10471005;28;20219;-71
2022/07/23 18:39:59;;;;;;;17.00;14.27;;;;;;;20.16;80.21;96861.31;10452013;28;20316;-72
2022/07/23 18:45:00;;;;;;;15.90;12.50;;;;;;;20.09;81.47;96865.84;10476948;28;20215;-72
2022/07/23 18:50:01;;;;;;;18.20;13.73;;;;;;;19.68;83.49;96869.69;10445968;28;20202;-71
2022/07/23 18:55:06;;;;;;;17.60;12.77;;;;;;;19.20;86.79;96870.84;10496149;28;20258;-72
2022/07/23 19:00:08;;;;;;;15.18;12.05;;;;;;;18.79;90.37;96871.88;10495847;28;20257;-72
2022/07/23 19:05:09;;;;;;;18.13;12.30;;;;;;;18.52;91.86;96872.69;10486064;28;20183;-71
2022/07/23 19:10:10;;;;;;;19.58;14.43;;;;;;;17.29;100.00;96886.75;10495099;28;20199;-71
2022/07/23 19:15:11;;;;;;;20.70;14.20;;;;;;;16.80;100.00;96890.25;10495458;28;20764;-71
2022/07/23 19:20:12;;;;;;;20.83;16.38;;;;;;;16.40;100.00;96906.59;10455558;28;20195;-71
2022/07/23 19:25:13;;;;;;;21.23;17.77;;;;;;;16.30;100.00;96906.06;10464576;28;20191;-71
2022/07/23 19:30:13;;;;;;;20.45;14.23;;;;;;;16.13;100.00;96904.69;10492971;28;20205;-71
2022/07/23 19:35:14;;;;;;;21.70;16.25;;;;;;;16.18;100.00;96910.22;10465271;28;20223;-71
2022/07/23 19:40:14;;;;;;;18.73;14.02;;;;;;;16.11;100.00;96911.94;10453032;28;20196;-71
2022/07/23 19:45:15;;;;;;;38.55;26.63;;;;;;;15.99;100.00;96920.38;10452461;28;20230;-71
2022/07/23 19:50:16;;;;;;;22.58;17.20;;;;;;;15.98;100.00;96921.38;10452863;28;20184;-71
2022/07/23 19:55:19;;;;;;;20.15;14.93;;;;;;;15.93;100.00;96925.59;10452017;28;20891;-71
2022/07/23 20:00:21;;;;;;;25.98;16.70;;;;;;;15.63;100.00;96936.16;10452159;28;20195;-71
2022/07/23 20:05:22;;;;;;;23.80;16.83;;;;;;;15.54;100.00;96938.06;10452208;28;20192;-70
2022/07/23 20:10:23;;;;;;;24.00;17.65;;;;;;;15.51;100.00;96941.91;10451709;28;20192;-70
2022/07/23 20:15:23;;;;;;;25.67;18.17;;;;;;;15.47;100.00;96943.25;10433848;28;20232;-71
2022/07/23 20:20:23;;;;;;;23.90;17.92;;;;;;;15.50;100.00;96956.09;10450944;28;20547;-71
2022/07/23 20:25:24;;;;;;;27.75;17.88;;;;;;;15.52;100.00;96959.34;10451704;28;20187;-71
2022/07/23 20:30:25;;;;;;;23.65;17.80;;;;;;;15.47;100.00;96963.56;10450946;28;20272;-71
2022/07/23 20:35:26;;;;;;;28.33;18.80;;;;;;;15.37;100.00;96966.44;10451445;28;20223;-71
2022/07/23 20:40:27;;;;;;;21.83;16.05;;;;;;;15.31;100.00;96970.66;10450987;28;20200;-71
2022/07/23 20:45:27;;;;;;;23.58;17.45;;;;;;;15.27;100.00;96971.19;10450645;28;20235;-71
2022/07/23 20:50:27;;;;;;;24.27;16.75;;;;;;;15.16;100.00;96977.72;10450398;28;20198;-71
2022/07/23 20:55:28;;;;;;;24.05;18.90;;;;;;;15.13;100.00;96984.16;10450705;28;20216;-71
2022/07/23 21:00:29;;;;;;;23.35;17.73;;;;;;;15.11;100.00;96982.69;10450489;28;20194;-71
2022/07/23 21:05:35;;;;;;;25.98;17.75;;;;;;;15.01;100.00;96990.88;10451649;28;20196;-71
2022/07/23 21:10:42;;;;;;;25.55;17.77;;;;;;;14.90;100.00;97002.66;10459460;28;20184;-71
2022/07/23 21:21:36;;;;;;;22.45;17.23;;;;;;;14.64;100.00;97003.00;10436496;28;20546;-71
2022/07/23 21:32:04;;;;;;;23.15;17.30;;;;;;;14.50;100.00;97011.63;10434134;28;20568;-70
2022/07/23 21:37:04;;;;;;;22.15;16.63;;;;;;;14.34;100.00;97013.34;10458008;28;20219;-70
2022/07/23 21:42:05;;;;;;;26.15;17.38;;;;;;;14.28;100.00;97011.41;10438890;28;20258;-70
2022/07/23 21:47:05;;;;;;;22.90;16.33;;;;;;;14.21;100.00;97019.19;10455950;28;20291;-70
2022/07/23 21:52:06;;;;;;;21.85;16.77;;;;;;;14.14;100.00;97023.50;10456075;28;20291;-70
2022/07/23 21:57:06;;;;;;;22.20;17.52;;;;;;;14.09;100.00;97028.47;10455811;28;20223;-70
2022/07/23 22:02:06;;;;;;;22.63;17.70;;;;;;;13.96;100.00;97029.00;10455177;28;20291;-70
2022/07/23 22:07:07;;;;;;;23.40;17.45;;;;;;;13.92;100.00;97030.34;10455789;28;20188;-70
2022/07/23 22:12:08;;;;;;;21.25;17.45;;;;;;;13.90;100.00;97043.69;10455189;28;20200;-70
2022/07/23 22:17:09;;;;;;;21.25;16.25;;;;;;;13.85;100.00;97040.72;10454210;28;20602;-70
2022/07/23 22:22:09;;;;;;;25.55;18.20;;;;;;;13.75;100.00;97047.97;10455064;28;20510;-70
2022/07/23 22:27:10;;;;;;;23.63;18.30;;;;;;;13.77;100.00;97056.56;10454741;28;20314;-70
2022/07/23 22:32:10;;;;;;;23.27;16.52;;;;;;;13.69;100.00;97044.22;10454476;28;20535;-70
2022/07/23 22:37:10;;;;;;;25.33;16.40;;;;;;;13.64;100.00;97040.44;10454501;28;20573;-70
2022/07/23 22:42:11;;;;;;;24.67;17.50;;;;;;;13.54;100.00;97051.16;10453926;28;20274;-70
2022/07/23 22:47:11;;;;;;;27.15;18.52;;;;;;;13.48;100.00;97050.00;10453612;28;20326;-70
2022/07/23 22:52:11;;;;;;;23.67;17.55;;;;;;;13.40;100.00;97052.66;10453611;28;20195;-70
2022/07/23 22:57:12;;;;;;;24.13;17.25;;;;;;;13.35;100.00;97055.78;10453269;28;20184;-70
2022/07/23 23:02:12;;;;;;;23.20;16.08;;;;;;;13.29;100.00;97058.22;10453273;28;20192;-70
2022/07/23 23:07:13;;;;;;;22.77;16.00;;;;;;;13.16;100.00;97056.91;10435755;28;20310;-70
2022/07/23 23:12:13;;;;;;;25.40;16.20;;;;;;;13.12;100.00;97058.19;10452547;28;20215;-70
2022/07/23 23:17:13;;;;;;;24.05;17.13;;;;;;;13.01;100.00;97061.97;10452953;28;20180;-70
2022/07/23 23:22:14;;;;;;;26.10;17.30;;;;;;;12.96;100.00;97064.28;10452380;28;20543;-70
2022/07/23 23:27:14;;;;;;;23.17;17.33;;;;;;;12.94;100.00;97061.00;10452112;28;20573;-70